CheckWX is a tool to help pilots better visualize weather data.  It is not intended as a substitute for an official pre-flight weather briefing.

22:31:47 UTC

KGRR TAF
Gerald R Ford International Airport
Grand Rapids, Michigan, USA
KGRR 062101Z 0621/0718 34009KT P6SM BKN035 FM070000 36006KT P6SM SCT035 BKN150 FM071200 15006KT P6SM OVC035

Dec-6@
21:00 UTC

Dec-6 @ 21:00 UTC

Dec-7@
00:00 UTC

Dec-7 @ 00:00 UTC

KGRR 062101Z 0621/0718 34009KT P6SM BKN035
Wind
  • 340° at 9 KTS
Cloud Levels
  • Broken at 3,500' AGL

Dec-7@
00:00 UTC

Dec-7 @ 00:00 UTC

Dec-7@
12:00 UTC

Dec-7 @ 12:00 UTC

FM070000 36006KT P6SM SCT035 BKN150

From

From Standard forecast or significant change

Wind
  • 360° at 6 KTS
Cloud Levels
  • Scattered at 3,500' AGL
  • Broken at 15,000' AGL

Dec-7@
12:00 UTC

Dec-7 @ 12:00 UTC

Dec-7@
18:00 UTC

Dec-7 @ 18:00 UTC

FM071200 15006KT P6SM OVC035

From

From Standard forecast or significant change

Wind
  • 150° at 6 KTS
Cloud Levels
  • Overcast at 3,500' AGL